sensor_id;sensor_type;location;lat;lon;timestamp;P1;durP1;ratioP1;P2;durP2;ratioP2
22871;SDS011;11603;44.910;8.630;2022-08-01T00:01:51;3.30;;;2.40;;
22871;SDS011;11603;44.910;8.630;2022-08-01T00:04:17;4.07;;;2.22;;
22871;SDS011;11603;44.910;8.630;2022-08-01T00:06:42;5.32;;;2.10;;
22871;SDS011;11603;44.910;8.630;2022-08-01T00:09:08;5.20;;;2.40;;
22871;SDS011;11603;44.910;8.630;2022-08-01T00:11:34;4.53;;;2.20;;
22871;SDS011;11603;44.910;8.630;2022-08-01T00:13:59;3.97;;;2.13;;
22871;SDS011;11603;44.910;8.630;2022-08-01T00:16:25;5.88;;;2.60;;
22871;SDS011;11603;44.910;8.630;2022-08-01T00:18:50;3.42;;;2.58;;
22871;SDS011;11603;44.910;8.630;2022-08-01T00:21:17;3.83;;;2.42;;
22871;SDS011;11603;44.910;8.630;2022-08-01T00:23:43;7.70;;;2.67;;
22871;SDS011;11603;44.910;8.630;2022-08-01T00:26:10;2.72;;;2.33;;
22871;SDS011;11603;44.910;8.630;2022-08-01T00:28:39;5.05;;;2.20;;
22871;SDS011;11603;44.910;8.630;2022-08-01T00:31:06;5.78;;;2.30;;
22871;SDS011;11603;44.910;8.630;2022-08-01T00:33:32;4.13;;;2.30;;
22871;SDS011;11603;44.910;8.630;2022-08-01T00:35:57;3.20;;;1.92;;
22871;SDS011;11603;44.910;8.630;2022-08-01T00:38:23;3.83;;;2.33;;
22871;SDS011;11603;44.910;8.630;2022-08-01T00:40:48;2.75;;;2.20;;
22871;SDS011;11603;44.910;8.630;2022-08-01T00:43:14;3.25;;;2.20;;
22871;SDS011;11603;44.910;8.630;2022-08-01T00:45:40;3.72;;;2.20;;
22871;SDS011;11603;44.910;8.630;2022-08-01T00:48:06;4.85;;;2.47;;
22871;SDS011;11603;44.910;8.630;2022-08-01T00:50:32;2.50;;;2.30;;
22871;SDS011;11603;44.910;8.630;2022-08-01T00:52:58;6.05;;;2.70;;
22871;SDS011;11603;44.910;8.630;2022-08-01T00:55:24;2.80;;;2.40;;
22871;SDS011;11603;44.910;8.630;2022-08-01T00:57:52;6.65;;;2.30;;
22871;SDS011;11603;44.910;8.630;2022-08-01T01:00:19;3.75;;;2.20;;
22871;SDS011;11603;44.910;8.630;2022-08-01T01:02:44;5.38;;;2.47;;
22871;SDS011;11603;44.910;8.630;2022-08-01T01:05:10;3.38;;;2.10;;
22871;SDS011;11603;44.910;8.630;2022-08-01T01:07:40;3.58;;;2.40;;
22871;SDS011;11603;44.910;8.630;2022-08-01T01:10:21;7.82;;;2.45;;
22871;SDS011;11603;44.910;8.630;2022-08-01T01:15:30;3.42;;;2.10;;
22871;SDS011;11603;44.910;8.630;2022-08-01T01:21:14;5.53;;;2.60;;
22871;SDS011;11603;44.910;8.630;2022-08-01T01:29:32;2.60;;;2.38;;
22871;SDS011;11603;44.910;8.630;2022-08-01T01:32:09;4.45;;;2.50;;
22871;SDS011;11603;44.910;8.630;2022-08-01T01:34:43;5.07;;;2.30;;
22871;SDS011;11603;44.910;8.630;2022-08-01T01:37:12;3.10;;;2.25;;
22871;SDS011;11603;44.910;8.630;2022-08-01T01:39:41;5.38;;;2.83;;
22871;SDS011;11603;44.910;8.630;2022-08-01T01:42:07;4.53;;;2.50;;
22871;SDS011;11603;44.910;8.630;2022-08-01T01:44:34;2.58;;;2.13;;
22871;SDS011;11603;44.910;8.630;2022-08-01T01:47:00;2.45;;;2.05;;
22871;SDS011;11603;44.910;8.630;2022-08-01T01:49:27;2.63;;;2.20;;
22871;SDS011;11603;44.910;8.630;2022-08-01T01:51:54;2.60;;;2.40;;
22871;SDS011;11603;44.910;8.630;2022-08-01T01:54:23;3.58;;;2.30;;
22871;SDS011;11603;44.910;8.630;2022-08-01T01:56:53;4.28;;;2.05;;
22871;SDS011;11603;44.910;8.630;2022-08-01T01:59:24;2.63;;;2.15;;
22871;SDS011;11603;44.910;8.630;2022-08-01T02:01:52;4.13;;;2.08;;
22871;SDS011;11603;44.910;8.630;2022-08-01T02:04:22;3.47;;;2.15;;
22871;SDS011;11603;44.910;8.630;2022-08-01T02:06:50;5.97;;;2.20;;
22871;SDS011;11603;44.910;8.630;2022-08-01T02:09:17;5.50;;;2.22;;
22871;SDS011;11603;44.910;8.630;2022-08-01T02:11:45;2.58;;;2.35;;
22871;SDS011;11603;44.910;8.630;2022-08-01T02:14:12;2.50;;;2.13;;
22871;SDS011;11603;44.910;8.630;2022-08-01T02:16:40;3.92;;;2.20;;
22871;SDS011;11603;44.910;8.630;2022-08-01T02:19:08;3.80;;;2.08;;
22871;SDS011;11603;44.910;8.630;2022-08-01T02:24:24;7.22;;;2.33;;
22871;SDS011;11603;44.910;8.630;2022-08-01T02:26:52;2.45;;;2.25;;
22871;SDS011;11603;44.910;8.630;2022-08-01T02:29:23;5.22;;;2.20;;
22871;SDS011;11603;44.910;8.630;2022-08-01T02:31:53;5.00;;;2.13;;
22871;SDS011;11603;44.910;8.630;2022-08-01T02:34:20;2.67;;;2.00;;
22871;SDS011;11603;44.910;8.630;2022-08-01T02:36:49;7.85;;;2.92;;
22871;SDS011;11603;44.910;8.630;2022-08-01T02:39:18;3.20;;;2.33;;
22871;SDS011;11603;44.910;8.630;2022-08-01T02:41:48;4.32;;;2.50;;
22871;SDS011;11603;44.910;8.630;2022-08-01T02:44:23;2.70;;;2.47;;
22871;SDS011;11603;44.910;8.630;2022-08-01T02:47:02;5.80;;;2.42;;
22871;SDS011;11603;44.910;8.630;2022-08-01T02:49:29;3.55;;;2.22;;
22871;SDS011;11603;44.910;8.630;2022-08-01T02:51:58;2.70;;;2.50;;
22871;SDS011;11603;44.910;8.630;2022-08-01T02:54:26;7.38;;;2.70;;
22871;SDS011;11603;44.910;8.630;2022-08-01T02:56:54;5.13;;;2.67;;
22871;SDS011;11603;44.910;8.630;2022-08-01T02:59:22;5.28;;;2.70;;
22871;SDS011;11603;44.910;8.630;2022-08-01T03:01:51;3.85;;;2.88;;
22871;SDS011;11603;44.910;8.630;2022-08-01T03:04:20;4.93;;;2.70;;
22871;SDS011;11603;44.910;8.630;2022-08-01T03:06:47;5.47;;;2.65;;
22871;SDS011;11603;44.910;8.630;2022-08-01T03:09:13;5.68;;;2.72;;
22871;SDS011;11603;44.910;8.630;2022-08-01T03:11:41;5.20;;;2.53;;
22871;SDS011;11603;44.910;8.630;2022-08-01T03:14:08;4.93;;;2.75;;
22871;SDS011;11603;44.910;8.630;2022-08-01T03:16:36;4.03;;;2.85;;
22871;SDS011;11603;44.910;8.630;2022-08-01T03:19:04;5.40;;;2.55;;
22871;SDS011;11603;44.910;8.630;2022-08-01T03:21:31;6.20;;;2.70;;
22871;SDS011;11603;44.910;8.630;2022-08-01T03:23:57;2.70;;;2.47;;
22871;SDS011;11603;44.910;8.630;2022-08-01T03:26:26;4.78;;;2.40;;
22871;SDS011;11603;44.910;8.630;2022-08-01T03:28:55;3.38;;;2.67;;
22871;SDS011;11603;44.910;8.630;2022-08-01T03:31:23;3.08;;;2.78;;
22871;SDS011;11603;44.910;8.630;2022-08-01T03:33:50;3.03;;;2.72;;
22871;SDS011;11603;44.910;8.630;2022-08-01T03:36:16;4.50;;;2.47;;
22871;SDS011;11603;44.910;8.630;2022-08-01T03:38:46;2.78;;;2.50;;
22871;SDS011;11603;44.910;8.630;2022-08-01T03:41:15;4.38;;;2.63;;
22871;SDS011;11603;44.910;8.630;2022-08-01T03:44:17;2.35;;;2.15;;
22871;SDS011;11603;44.910;8.630;2022-08-01T03:46:59;3.78;;;2.40;;
22871;SDS011;11603;44.910;8.630;2022-08-01T03:49:33;3.90;;;2.60;;
22871;SDS011;11603;44.910;8.630;2022-08-01T03:52:03;2.90;;;2.60;;
22871;SDS011;11603;44.910;8.630;2022-08-01T03:54:33;7.47;;;2.70;;
22871;SDS011;11603;44.910;8.630;2022-08-01T03:57:01;4.30;;;2.53;;
22871;SDS011;11603;44.910;8.630;2022-08-01T03:59:27;11.07;;;3.08;;
22871;SDS011;11603;44.910;8.630;2022-08-01T04:01:54;5.93;;;2.60;;
22871;SDS011;11603;44.910;8.630;2022-08-01T04:04:21;5.28;;;2.72;;
22871;SDS011;11603;44.910;8.630;2022-08-01T04:06:47;6.15;;;2.58;;
22871;SDS011;11603;44.910;8.630;2022-08-01T04:09:16;6.97;;;2.58;;
22871;SDS011;11603;44.910;8.630;2022-08-01T04:11:43;2.90;;;2.60;;
22871;SDS011;11603;44.910;8.630;2022-08-01T04:14:08;5.57;;;2.70;;
22871;SDS011;11603;44.910;8.630;2022-08-01T04:16:34;6.97;;;2.70;;
22871;SDS011;11603;44.910;8.630;2022-08-01T04:18:59;3.17;;;2.50;;
22871;SDS011;11603;44.910;8.630;2022-08-01T04:21:26;3.95;;;2.42;;
22871;SDS011;11603;44.910;8.630;2022-08-01T04:23:54;5.40;;;2.42;;
22871;SDS011;11603;44.910;8.630;2022-08-01T04:26:23;5.22;;;2.60;;
22871;SDS011;11603;44.910;8.630;2022-08-01T04:28:50;4.03;;;2.60;;
22871;SDS011;11603;44.910;8.630;2022-08-01T04:31:19;6.15;;;2.55;;
22871;SDS011;11603;44.910;8.630;2022-08-01T04:33:48;6.30;;;2.78;;
22871;SDS011;11603;44.910;8.630;2022-08-01T04:36:18;6.00;;;2.70;;
22871;SDS011;11603;44.910;8.630;2022-08-01T04:38:48;5.80;;;2.75;;
22871;SDS011;11603;44.910;8.630;2022-08-01T04:41:17;6.45;;;2.70;;
22871;SDS011;11603;44.910;8.630;2022-08-01T04:43:44;5.18;;;2.30;;
22871;SDS011;11603;44.910;8.630;2022-08-01T04:46:10;6.63;;;2.40;;
22871;SDS011;11603;44.910;8.630;2022-08-01T04:48:37;10.90;;;2.88;;
22871;SDS011;11603;44.910;8.630;2022-08-01T04:51:04;7.40;;;2.42;;
22871;SDS011;11603;44.910;8.630;2022-08-01T04:53:38;5.75;;;2.45;;
22871;SDS011;11603;44.910;8.630;2022-08-01T04:56:03;7.72;;;2.60;;
22871;SDS011;11603;44.910;8.630;2022-08-01T04:58:29;4.28;;;2.72;;
22871;SDS011;11603;44.910;8.630;2022-08-01T05:00:54;6.40;;;2.63;;
22871;SDS011;11603;44.910;8.630;2022-08-01T05:03:20;7.47;;;3.00;;
22871;SDS011;11603;44.910;8.630;2022-08-01T05:05:47;6.45;;;2.60;;
22871;SDS011;11603;44.910;8.630;2022-08-01T05:08:12;3.42;;;2.15;;
22871;SDS011;11603;44.910;8.630;2022-08-01T05:10:37;8.10;;;2.30;;
22871;SDS011;11603;44.910;8.630;2022-08-01T05:13:03;9.82;;;2.58;;
22871;SDS011;11603;44.910;8.630;2022-08-01T05:15:29;10.38;;;2.90;;
22871;SDS011;11603;44.910;8.630;2022-08-01T05:17:54;9.18;;;3.00;;
22871;SDS011;11603;44.910;8.630;2022-08-01T05:20:21;8.20;;;2.38;;
22871;SDS011;11603;44.910;8.630;2022-08-01T05:22:46;9.15;;;2.58;;
22871;SDS011;11603;44.910;8.630;2022-08-01T05:25:12;5.03;;;2.45;;
22871;SDS011;11603;44.910;8.630;2022-08-01T05:27:38;4.72;;;2.20;;
22871;SDS011;11603;44.910;8.630;2022-08-01T05:30:08;7.07;;;2.47;;
22871;SDS011;11603;44.910;8.630;2022-08-01T05:32:34;5.03;;;2.45;;
22871;SDS011;11603;44.910;8.630;2022-08-01T05:35:00;4.68;;;2.33;;
22871;SDS011;11603;44.910;8.630;2022-08-01T05:37:26;8.38;;;2.30;;
22871;SDS011;11603;44.910;8.630;2022-08-01T05:39:52;4.50;;;2.53;;
22871;SDS011;11603;44.910;8.630;2022-08-01T05:42:17;5.22;;;2.60;;
22871;SDS011;11603;44.910;8.630;2022-08-01T05:44:43;7.03;;;2.42;;
22871;SDS011;11603;44.910;8.630;2022-08-01T05:47:08;5.57;;;2.55;;
22871;SDS011;11603;44.910;8.630;2022-08-01T05:49:34;5.65;;;2.05;;
22871;SDS011;11603;44.910;8.630;2022-08-01T05:51:59;5.28;;;2.40;;
22871;SDS011;11603;44.910;8.630;2022-08-01T05:54:27;2.35;;;2.10;;
22871;SDS011;11603;44.910;8.630;2022-08-01T05:56:52;7.80;;;2.58;;
22871;SDS011;11603;44.910;8.630;2022-08-01T05:59:18;5.28;;;2.33;;
22871;SDS011;11603;44.910;8.630;2022-08-01T06:01:44;4.20;;;2.50;;
22871;SDS011;11603;44.910;8.630;2022-08-01T06:04:09;5.18;;;2.15;;
22871;SDS011;11603;44.910;8.630;2022-08-01T06:06:35;4.25;;;2.40;;
22871;SDS011;11603;44.910;8.630;2022-08-01T06:09:00;8.40;;;2.50;;
22871;SDS011;11603;44.910;8.630;2022-08-01T06:11:26;5.93;;;2.38;;
22871;SDS011;11603;44.910;8.630;2022-08-01T06:13:51;7.75;;;2.30;;
22871;SDS011;11603;44.910;8.630;2022-08-01T06:16:17;3.22;;;2.22;;
22871;SDS011;11603;44.910;8.630;2022-08-01T06:18:42;4.78;;;3.10;;
22871;SDS011;11603;44.910;8.630;2022-08-01T06:21:08;7.63;;;3.22;;
22871;SDS011;11603;44.910;8.630;2022-08-01T06:23:33;3.60;;;3.00;;
22871;SDS011;11603;44.910;8.630;2022-08-01T06:25:59;5.85;;;3.03;;
22871;SDS011;11603;44.910;8.630;2022-08-01T06:28:24;3.47;;;2.90;;
22871;SDS011;11603;44.910;8.630;2022-08-01T06:30:50;4.80;;;3.17;;
22871;SDS011;11603;44.910;8.630;2022-08-01T06:33:17;3.75;;;2.88;;
22871;SDS011;11603;44.910;8.630;2022-08-01T06:35:42;3.80;;;3.33;;
22871;SDS011;11603;44.910;8.630;2022-08-01T06:38:08;3.83;;;3.13;;
22871;SDS011;11603;44.910;8.630;2022-08-01T06:40:33;6.43;;;3.30;;
22871;SDS011;11603;44.910;8.630;2022-08-01T06:42:59;6.78;;;2.85;;
22871;SDS011;11603;44.910;8.630;2022-08-01T06:45:24;4.05;;;3.28;;
22871;SDS011;11603;44.910;8.630;2022-08-01T06:47:51;6.28;;;3.05;;
22871;SDS011;11603;44.910;8.630;2022-08-01T06:50:17;4.07;;;2.67;;
22871;SDS011;11603;44.910;8.630;2022-08-01T06:52:43;5.10;;;2.60;;
22871;SDS011;11603;44.910;8.630;2022-08-01T06:55:09;6.50;;;3.00;;
22871;SDS011;11603;44.910;8.630;2022-08-01T06:57:35;5.75;;;2.80;;
22871;SDS011;11603;44.910;8.630;2022-08-01T07:00:02;5.15;;;2.78;;
22871;SDS011;11603;44.910;8.630;2022-08-01T07:02:36;3.90;;;2.63;;
22871;SDS011;11603;44.910;8.630;2022-08-01T07:05:02;5.25;;;2.88;;
22871;SDS011;11603;44.910;8.630;2022-08-01T07:07:29;7.00;;;3.25;;
22871;SDS011;11603;44.910;8.630;2022-08-01T07:09:55;5.97;;;3.05;;
22871;SDS011;11603;44.910;8.630;2022-08-01T07:12:21;4.15;;;3.50;;
22871;SDS011;11603;44.910;8.630;2022-08-01T07:14:46;4.95;;;3.03;;
22871;SDS011;11603;44.910;8.630;2022-08-01T07:17:12;5.25;;;3.20;;
22871;SDS011;11603;44.910;8.630;2022-08-01T07:19:37;5.18;;;2.42;;
22871;SDS011;11603;44.910;8.630;2022-08-01T07:22:03;2.95;;;2.72;;
22871;SDS011;11603;44.910;8.630;2022-08-01T07:24:28;4.18;;;2.60;;
22871;SDS011;11603;44.910;8.630;2022-08-01T07:26:54;4.88;;;2.90;;
22871;SDS011;11603;44.910;8.630;2022-08-01T07:29:25;5.50;;;3.10;;
22871;SDS011;11603;44.910;8.630;2022-08-01T07:31:52;7.43;;;2.90;;
22871;SDS011;11603;44.910;8.630;2022-08-01T07:34:19;2.55;;;2.35;;
22871;SDS011;11603;44.910;8.630;2022-08-01T07:36:45;7.88;;;2.50;;
22871;SDS011;11603;44.910;8.630;2022-08-01T07:39:10;3.42;;;2.30;;
22871;SDS011;11603;44.910;8.630;2022-08-01T07:41:36;7.47;;;2.60;;
22871;SDS011;11603;44.910;8.630;2022-08-01T07:44:01;5.82;;;2.60;;
22871;SDS011;11603;44.910;8.630;2022-08-01T07:46:28;3.97;;;2.00;;
22871;SDS011;11603;44.910;8.630;2022-08-01T07:48:55;2.63;;;2.20;;
22871;SDS011;11603;44.910;8.630;2022-08-01T07:51:21;6.45;;;2.42;;
22871;SDS011;11603;44.910;8.630;2022-08-01T07:53:47;5.85;;;2.70;;
22871;SDS011;11603;44.910;8.630;2022-08-01T07:56:15;3.00;;;2.45;;
22871;SDS011;11603;44.910;8.630;2022-08-01T07:58:41;4.88;;;2.90;;
22871;SDS011;11603;44.910;8.630;2022-08-01T08:01:07;3.88;;;2.58;;
22871;SDS011;11603;44.910;8.630;2022-08-01T08:03:33;3.85;;;2.60;;
22871;SDS011;11603;44.910;8.630;2022-08-01T08:05:58;4.57;;;2.80;;
22871;SDS011;11603;44.910;8.630;2022-08-01T08:08:24;9.88;;;2.58;;
22871;SDS011;11603;44.910;8.630;2022-08-01T08:10:50;4.00;;;2.55;;
22871;SDS011;11603;44.910;8.630;2022-08-01T08:13:15;4.45;;;2.58;;
22871;SDS011;11603;44.910;8.630;2022-08-01T08:15:41;5.45;;;2.20;;
22871;SDS011;11603;44.910;8.630;2022-08-01T08:18:06;6.15;;;2.25;;
22871;SDS011;11603;44.910;8.630;2022-08-01T08:20:32;10.20;;;2.53;;
22871;SDS011;11603;44.910;8.630;2022-08-01T08:22:58;4.47;;;2.35;;
22871;SDS011;11603;44.910;8.630;2022-08-01T08:25:24;4.03;;;2.17;;
22871;SDS011;11603;44.910;8.630;2022-08-01T08:27:50;4.25;;;2.38;;
22871;SDS011;11603;44.910;8.630;2022-08-01T08:30:19;3.05;;;2.15;;
22871;SDS011;11603;44.910;8.630;2022-08-01T08:35:59;5.43;;;2.58;;
22871;SDS011;11603;44.910;8.630;2022-08-01T08:38:24;4.70;;;2.50;;
22871;SDS011;11603;44.910;8.630;2022-08-01T08:44:04;3.60;;;2.30;;
22871;SDS011;11603;44.910;8.630;2022-08-01T08:46:31;4.72;;;2.55;;
22871;SDS011;11603;44.910;8.630;2022-08-01T08:48:58;6.13;;;2.63;;
22871;SDS011;11603;44.910;8.630;2022-08-01T08:51:25;3.58;;;2.78;;
22871;SDS011;11603;44.910;8.630;2022-08-01T08:53:56;8.18;;;2.42;;
22871;SDS011;11603;44.910;8.630;2022-08-01T08:56:25;5.22;;;2.72;;
22871;SDS011;11603;44.910;8.630;2022-08-01T08:58:55;8.38;;;2.50;;
22871;SDS011;11603;44.910;8.630;2022-08-01T09:01:21;2.92;;;2.28;;
22871;SDS011;11603;44.910;8.630;2022-08-01T09:03:47;3.53;;;2.20;;
22871;SDS011;11603;44.910;8.630;2022-08-01T09:06:18;4.70;;;2.65;;
22871;SDS011;11603;44.910;8.630;2022-08-01T09:08:47;4.53;;;2.33;;
22871;SDS011;11603;44.910;8.630;2022-08-01T09:16:42;2.97;;;2.20;;
22871;SDS011;11603;44.910;8.630;2022-08-01T09:19:13;5.85;;;2.47;;
22871;SDS011;11603;44.910;8.630;2022-08-01T09:21:56;2.75;;;2.20;;
22871;SDS011;11603;44.910;8.630;2022-08-01T09:24:28;2.95;;;2.20;;
22871;SDS011;11603;44.910;8.630;2022-08-01T09:26:56;6.38;;;3.33;;
22871;SDS011;11603;44.910;8.630;2022-08-01T09:29:26;5.57;;;2.53;;
22871;SDS011;11603;44.910;8.630;2022-08-01T09:31:53;5.45;;;2.38;;
22871;SDS011;11603;44.910;8.630;2022-08-01T09:34:28;4.65;;;2.42;;
22871;SDS011;11603;44.910;8.630;2022-08-01T09:36:57;3.20;;;2.60;;
22871;SDS011;11603;44.910;8.630;2022-08-01T09:39:25;3.50;;;2.10;;
22871;SDS011;11603;44.910;8.630;2022-08-01T09:42:02;4.78;;;2.50;;
22871;SDS011;11603;44.910;8.630;2022-08-01T09:44:44;3.78;;;2.30;;
22871;SDS011;11603;44.910;8.630;2022-08-01T09:47:10;4.82;;;2.67;;
22871;SDS011;11603;44.910;8.630;2022-08-01T09:52:53;4.38;;;2.20;;
22871;SDS011;11603;44.910;8.630;2022-08-01T09:55:21;2.88;;;2.58;;
22871;SDS011;11603;44.910;8.630;2022-08-01T09:58:02;2.83;;;2.08;;
22871;SDS011;11603;44.910;8.630;2022-08-01T10:00:29;6.85;;;2.10;;
22871;SDS011;11603;44.910;8.630;2022-08-01T10:02:56;2.97;;;1.83;;
22871;SDS011;11603;44.910;8.630;2022-08-01T10:05:32;4.65;;;2.60;;
22871;SDS011;11603;44.910;8.630;2022-08-01T10:13:34;3.10;;;1.92;;
22871;SDS011;11603;44.910;8.630;2022-08-01T10:16:00;4.72;;;1.80;;
22871;SDS011;11603;44.910;8.630;2022-08-01T10:18:26;2.83;;;1.77;;
22871;SDS011;11603;44.910;8.630;2022-08-01T10:20:55;3.22;;;1.70;;
22871;SDS011;11603;44.910;8.630;2022-08-01T10:23:22;3.92;;;2.00;;
22871;SDS011;11603;44.910;8.630;2022-08-01T10:25:51;2.17;;;1.75;;
22871;SDS011;11603;44.910;8.630;2022-08-01T10:28:23;2.65;;;1.90;;
22871;SDS011;11603;44.910;8.630;2022-08-01T10:30:50;3.67;;;1.50;;
22871;SDS011;11603;44.910;8.630;2022-08-01T10:33:21;4.53;;;1.85;;
22871;SDS011;11603;44.910;8.630;2022-08-01T10:35:47;4.03;;;1.90;;
22871;SDS011;11603;44.910;8.630;2022-08-01T10:38:14;8.60;;;1.95;;
22871;SDS011;11603;44.910;8.630;2022-08-01T10:40:40;5.20;;;1.80;;
22871;SDS011;11603;44.910;8.630;2022-08-01T10:43:07;3.08;;;1.75;;
22871;SDS011;11603;44.910;8.630;2022-08-01T10:45:34;4.00;;;1.80;;
22871;SDS011;11603;44.910;8.630;2022-08-01T10:50:52;3.40;;;1.75;;
22871;SDS011;11603;44.910;8.630;2022-08-01T10:53:21;3.80;;;1.55;;
22871;SDS011;11603;44.910;8.630;2022-08-01T10:58:26;3.88;;;1.40;;
22871;SDS011;11603;44.910;8.630;2022-08-01T11:14:27;1.67;;;1.50;;
22871;SDS011;11603;44.910;8.630;2022-08-01T11:16:52;3.47;;;1.85;;
22871;SDS011;11603;44.910;8.630;2022-08-01T11:19:18;1.67;;;1.55;;
22871;SDS011;11603;44.910;8.630;2022-08-01T11:27:29;3.30;;;1.95;;
22871;SDS011;11603;44.910;8.630;2022-08-01T11:43:16;2.10;;;1.58;;
22871;SDS011;11603;44.910;8.630;2022-08-01T12:00:52;2.83;;;1.40;;
22871;SDS011;11603;44.910;8.630;2022-08-01T12:06:00;1.63;;;1.52;;
22871;SDS011;11603;44.910;8.630;2022-08-01T12:08:28;3.20;;;1.70;;
22871;SDS011;11603;44.910;8.630;2022-08-01T12:10:56;2.92;;;1.60;;
22871;SDS011;11603;44.910;8.630;2022-08-01T12:13:22;2.83;;;1.60;;
22871;SDS011;11603;44.910;8.630;2022-08-01T12:15:47;2.92;;;1.70;;
22871;SDS011;11603;44.910;8.630;2022-08-01T12:18:15;1.70;;;1.60;;
22871;SDS011;11603;44.910;8.630;2022-08-01T12:20:42;4.32;;;1.77;;
22871;SDS011;11603;44.910;8.630;2022-08-01T12:38:07;1.80;;;1.45;;
22871;SDS011;11603;44.910;8.630;2022-08-01T12:51:45;2.10;;;1.50;;
22871;SDS011;11603;44.910;8.630;2022-08-01T12:54:11;5.65;;;1.80;;
22871;SDS011;11603;44.910;8.630;2022-08-01T12:56:37;3.05;;;1.50;;
22871;SDS011;11603;44.910;8.630;2022-08-01T12:59:18;1.70;;;1.60;;
22871;SDS011;11603;44.910;8.630;2022-08-01T13:02:34;2.13;;;1.70;;
22871;SDS011;11603;44.910;8.630;2022-08-01T13:05:01;4.82;;;1.80;;
22871;SDS011;11603;44.910;8.630;2022-08-01T13:07:34;2.83;;;1.80;;
22871;SDS011;11603;44.910;8.630;2022-08-01T13:10:11;4.07;;;1.80;;
22871;SDS011;11603;44.910;8.630;2022-08-01T13:12:38;4.75;;;1.60;;
22871;SDS011;11603;44.910;8.630;2022-08-01T13:15:18;4.30;;;1.92;;
22871;SDS011;11603;44.910;8.630;2022-08-01T13:17:49;5.47;;;2.10;;
22871;SDS011;11603;44.910;8.630;2022-08-01T13:20:25;3.67;;;1.95;;
22871;SDS011;11603;44.910;8.630;2022-08-01T13:22:55;5.38;;;1.75;;
22871;SDS011;11603;44.910;8.630;2022-08-01T13:25:34;6.28;;;2.00;;
22871;SDS011;11603;44.910;8.630;2022-08-01T13:28:15;2.33;;;1.40;;
22871;SDS011;11603;44.910;8.630;2022-08-01T13:33:26;2.00;;;1.80;;
22871;SDS011;11603;44.910;8.630;2022-08-01T13:36:04;3.15;;;1.60;;
22871;SDS011;11603;44.910;8.630;2022-08-01T13:38:30;1.63;;;1.52;;
22871;SDS011;11603;44.910;8.630;2022-08-01T13:41:14;2.65;;;1.52;;
22871;SDS011;11603;44.910;8.630;2022-08-01T13:43:40;2.10;;;1.65;;
22871;SDS011;11603;44.910;8.630;2022-08-01T13:46:06;1.90;;;1.80;;
22871;SDS011;11603;44.910;8.630;2022-08-01T13:48:31;1.60;;;1.35;;
22871;SDS011;11603;44.910;8.630;2022-08-01T13:50:58;4.32;;;1.48;;
22871;SDS011;11603;44.910;8.630;2022-08-01T13:53:24;3.10;;;1.35;;
22871;SDS011;11603;44.910;8.630;2022-08-01T13:55:49;3.42;;;1.55;;
22871;SDS011;11603;44.910;8.630;2022-08-01T13:58:15;4.82;;;1.60;;
22871;SDS011;11603;44.910;8.630;2022-08-01T14:00:40;2.97;;;1.75;;
22871;SDS011;11603;44.910;8.630;2022-08-01T14:03:06;3.47;;;1.40;;
22871;SDS011;11603;44.910;8.630;2022-08-01T14:05:34;2.00;;;1.40;;
22871;SDS011;11603;44.910;8.630;2022-08-01T14:08:00;8.23;;;2.15;;
22871;SDS011;11603;44.910;8.630;2022-08-01T14:10:26;3.05;;;1.80;;
22871;SDS011;11603;44.910;8.630;2022-08-01T14:12:51;2.13;;;1.50;;
22871;SDS011;11603;44.910;8.630;2022-08-01T14:15:17;5.55;;;1.70;;
22871;SDS011;11603;44.910;8.630;2022-08-01T14:17:43;2.95;;;1.20;;
22871;SDS011;11603;44.910;8.630;2022-08-01T14:20:09;8.02;;;1.35;;
22871;SDS011;11603;44.910;8.630;2022-08-01T14:22:35;1.73;;;1.05;;
22871;SDS011;11603;44.910;8.630;2022-08-01T14:25:01;3.20;;;1.05;;
22871;SDS011;11603;44.910;8.630;2022-08-01T14:27:28;2.42;;;0.90;;
22871;SDS011;11603;44.910;8.630;2022-08-01T14:29:55;2.88;;;1.17;;
22871;SDS011;11603;44.910;8.630;2022-08-01T14:32:21;1.65;;;1.27;;
22871;SDS011;11603;44.910;8.630;2022-08-01T14:34:47;4.25;;;1.30;;
22871;SDS011;11603;44.910;8.630;2022-08-01T14:37:13;2.30;;;1.23;;
22871;SDS011;11603;44.910;8.630;2022-08-01T14:39:38;2.78;;;1.23;;
22871;SDS011;11603;44.910;8.630;2022-08-01T14:42:04;3.20;;;1.40;;
22871;SDS011;11603;44.910;8.630;2022-08-01T14:44:29;1.17;;;1.00;;
22871;SDS011;11603;44.910;8.630;2022-08-01T14:46:56;4.03;;;1.30;;
22871;SDS011;11603;44.910;8.630;2022-08-01T14:49:22;2.00;;;0.98;;
22871;SDS011;11603;44.910;8.630;2022-08-01T14:51:48;4.20;;;1.00;;
22871;SDS011;11603;44.910;8.630;2022-08-01T14:54:16;3.15;;;1.08;;
22871;SDS011;11603;44.910;8.630;2022-08-01T14:56:42;1.75;;;0.90;;
22871;SDS011;11603;44.910;8.630;2022-08-01T14:59:07;1.60;;;1.20;;
22871;SDS011;11603;44.910;8.630;2022-08-01T15:01:33;2.65;;;1.27;;
22871;SDS011;11603;44.910;8.630;2022-08-01T15:04:00;3.05;;;1.00;;
22871;SDS011;11603;44.910;8.630;2022-08-01T15:06:28;7.38;;;1.52;;
22871;SDS011;11603;44.910;8.630;2022-08-01T15:08:57;1.77;;;1.13;;
22871;SDS011;11603;44.910;8.630;2022-08-01T15:11:22;3.85;;;0.95;;
22871;SDS011;11603;44.910;8.630;2022-08-01T15:13:48;2.20;;;1.35;;
22871;SDS011;11603;44.910;8.630;2022-08-01T15:16:34;1.70;;;1.23;;
22871;SDS011;11603;44.910;8.630;2022-08-01T15:19:00;3.20;;;1.00;;
22871;SDS011;11603;44.910;8.630;2022-08-01T15:21:25;6.43;;;1.20;;
22871;SDS011;11603;44.910;8.630;2022-08-01T15:23:52;1.88;;;0.95;;
22871;SDS011;11603;44.910;8.630;2022-08-01T15:26:21;3.75;;;1.00;;
22871;SDS011;11603;44.910;8.630;2022-08-01T15:28:46;1.23;;;1.10;;
22871;SDS011;11603;44.910;8.630;2022-08-01T15:31:12;6.20;;;1.13;;
22871;SDS011;11603;44.910;8.630;2022-08-01T15:33:38;3.03;;;1.15;;
22871;SDS011;11603;44.910;8.630;2022-08-01T15:41:28;3.25;;;0.93;;
22871;SDS011;11603;44.910;8.630;2022-08-01T15:43:53;2.42;;;1.05;;
22871;SDS011;11603;44.910;8.630;2022-08-01T16:05:06;2.38;;;1.40;;
22871;SDS011;11603;44.910;8.630;2022-08-01T16:37:14;4.53;;;2.30;;
22871;SDS011;11603;44.910;8.630;2022-08-01T17:25:40;4.00;;;1.23;;
22871;SDS011;11603;44.910;8.630;2022-08-01T17:28:06;2.88;;;1.30;;
22871;SDS011;11603;44.910;8.630;2022-08-01T17:30:31;1.50;;;1.20;;
22871;SDS011;11603;44.910;8.630;2022-08-01T17:35:40;3.58;;;1.33;;
22871;SDS011;11603;44.910;8.630;2022-08-01T17:38:05;2.47;;;1.25;;
22871;SDS011;11603;44.910;8.630;2022-08-01T17:48:29;2.17;;;1.08;;
22871;SDS011;11603;44.910;8.630;2022-08-01T17:50:57;3.35;;;1.27;;
22871;SDS011;11603;44.910;8.630;2022-08-01T17:53:25;3.50;;;1.40;;
22871;SDS011;11603;44.910;8.630;2022-08-01T18:14:50;3.47;;;1.23;;
22871;SDS011;11603;44.910;8.630;2022-08-01T18:17:18;4.63;;;1.10;;
22871;SDS011;11603;44.910;8.630;2022-08-01T18:19:43;3.10;;;1.15;;
22871;SDS011;11603;44.910;8.630;2022-08-01T18:22:09;2.72;;;0.93;;
22871;SDS011;11603;44.910;8.630;2022-08-01T18:24:36;1.92;;;1.10;;
22871;SDS011;11603;44.910;8.630;2022-08-01T18:27:03;1.10;;;1.00;;
22871;SDS011;11603;44.910;8.630;2022-08-01T18:29:30;3.10;;;1.10;;
22871;SDS011;11603;44.910;8.630;2022-08-01T18:31:59;1.83;;;1.00;;
22871;SDS011;11603;44.910;8.630;2022-08-01T18:34:27;1.98;;;1.20;;
22871;SDS011;11603;44.910;8.630;2022-08-01T18:36:53;2.08;;;1.10;;
22871;SDS011;11603;44.910;8.630;2022-08-01T18:39:23;6.72;;;1.45;;
22871;SDS011;11603;44.910;8.630;2022-08-01T18:41:49;2.72;;;0.90;;
22871;SDS011;11603;44.910;8.630;2022-08-01T18:44:15;3.00;;;0.90;;
22871;SDS011;11603;44.910;8.630;2022-08-01T18:46:43;2.22;;;0.95;;
22871;SDS011;11603;44.910;8.630;2022-08-01T18:55:37;0.98;;;0.95;;
22871;SDS011;11603;44.910;8.630;2022-08-01T19:50:12;2.53;;;0.90;;
22871;SDS011;11603;44.910;8.630;2022-08-01T19:52:37;2.42;;;0.85;;
22871;SDS011;11603;44.910;8.630;2022-08-01T19:55:04;3.42;;;1.10;;
22871;SDS011;11603;44.910;8.630;2022-08-01T19:57:31;2.17;;;1.00;;
22871;SDS011;11603;44.910;8.630;2022-08-01T20:33:09;1.48;;;1.10;;